createdAt,value
2018-03-20T00:00:28.897Z,35.10
2018-03-20T00:01:30.301Z,29.80
2018-03-20T00:02:31.729Z,31.85
2018-03-20T00:04:49.727Z,33.28
2018-03-20T00:05:51.527Z,32.50
2018-03-20T00:06:52.935Z,34.53
2018-03-20T00:07:54.323Z,32.53
2018-03-20T00:08:56.503Z,34.63
2018-03-20T00:09:57.920Z,30.92
2018-03-20T00:10:59.616Z,31.48
2018-03-20T00:12:01.018Z,34.38
2018-03-20T00:13:04.126Z,33.15
2018-03-20T00:14:51.946Z,36.08
2018-03-20T00:15:55.053Z,33.67
2018-03-20T00:16:57.218Z,34.75
2018-03-20T00:17:59.343Z,34.78
2018-03-20T00:19:01.495Z,32.45
2018-03-20T00:20:02.976Z,29.25
2018-03-20T00:21:04.371Z,28.92
2018-03-20T00:22:06.541Z,33.70
2018-03-20T00:23:59.175Z,34.72
2018-03-20T00:25:00.577Z,34.88
2018-03-20T00:26:01.979Z,33.15
2018-03-20T00:27:42.679Z,33.10
2018-03-20T00:28:44.105Z,30.00
2018-03-20T00:31:08.359Z,34.00
2018-03-20T00:32:09.763Z,31.15
2018-03-20T00:33:11.335Z,32.15
2018-03-20T00:34:12.731Z,35.05
2018-03-20T00:35:14.149Z,34.08
2018-03-20T00:36:15.543Z,35.17
2018-03-20T00:37:17.362Z,31.95
2018-03-20T00:38:18.797Z,33.63
2018-03-20T00:39:21.315Z,33.22
2018-03-20T00:40:22.709Z,34.00
2018-03-20T00:41:24.123Z,30.35
2018-03-20T00:42:25.534Z,36.63
2018-03-20T00:43:27.303Z,34.92
2018-03-20T00:44:28.719Z,32.72
2018-03-20T00:45:30.851Z,35.50
2018-03-20T00:46:33.375Z,34.17
2018-03-20T00:47:34.767Z,33.03
2018-03-20T00:48:36.183Z,32.47
2018-03-20T00:49:37.643Z,37.60
2018-03-20T00:50:39.744Z,32.08
2018-03-20T01:05:06.175Z,36.30
2018-03-20T01:06:08.315Z,33.45
2018-03-20T01:07:09.712Z,36.55
2018-03-20T01:08:11.789Z,32.00
2018-03-20T01:09:13.183Z,34.88
2018-03-20T01:10:14.610Z,33.13
2018-03-20T01:11:16.031Z,37.67
2018-03-20T01:12:17.424Z,37.00
2018-03-20T01:14:27.116Z,34.55
2018-03-20T01:15:29.317Z,36.05
2018-03-20T01:16:30.703Z,34.92
2018-03-20T01:17:32.220Z,37.63
2018-03-20T01:19:36.519Z,34.15
2018-03-20T01:20:38.183Z,37.35
2018-03-20T01:26:56.563Z,35.38
2018-03-20T01:28:34.154Z,33.40
2018-03-20T01:29:37.269Z,36.40
2018-03-20T01:30:39.439Z,37.15
2018-03-20T01:31:42.426Z,36.05
2018-03-20T01:32:44.104Z,38.05
2018-03-20T01:33:47.002Z,36.33
2018-03-20T01:34:50.117Z,37.50
2018-03-20T01:35:51.526Z,35.40
2018-03-20T01:36:52.932Z,34.22
2018-03-20T01:37:54.621Z,37.85
2018-03-20T01:38:56.042Z,37.10
2018-03-20T01:40:19.183Z,38.38
2018-03-20T01:41:20.951Z,34.97
2018-03-20T01:42:22.347Z,35.03
2018-03-20T01:44:09.426Z,37.83
2018-03-20T01:45:10.821Z,34.65
2018-03-20T01:46:12.200Z,36.63
2018-03-20T01:47:13.614Z,36.03
2018-03-20T01:48:16.733Z,38.25
2018-03-20T01:49:19.870Z,35.60
2018-03-20T01:50:21.285Z,34.30
2018-03-20T01:51:22.687Z,34.85
2018-03-20T01:52:25.015Z,36.17
2018-03-20T01:53:26.419Z,35.22
2018-03-20T01:54:28.117Z,36.28
2018-03-20T01:55:29.523Z,36.58
2018-03-20T01:57:26.180Z,33.35
2018-03-20T01:59:31.551Z,36.65
2018-03-20T02:00:32.975Z,35.80
2018-03-20T02:01:34.385Z,32.28
2018-03-20T02:02:35.799Z,35.72
2018-03-20T02:03:38.983Z,39.35
2018-03-20T02:04:40.699Z,32.95
2018-03-20T02:06:23.075Z,36.75
2018-03-20T02:07:25.976Z,34.65
2018-03-20T02:08:27.454Z,36.65
2018-03-20T02:09:28.849Z,34.28
2018-03-20T02:10:31.299Z,35.65
2018-03-20T02:11:32.693Z,34.88
2018-03-20T02:12:34.115Z,35.65
2018-03-20T02:13:35.499Z,33.42
2018-03-20T02:14:38.605Z,32.33
2018-03-20T02:15:40.763Z,35.90
2018-03-20T02:16:42.229Z,36.00
2018-03-20T02:17:43.635Z,34.03
2018-03-20T02:18:46.741Z,35.08
2018-03-20T02:19:48.135Z,33.90
2018-03-20T02:20:49.844Z,33.53
2018-03-20T02:21:52.960Z,35.03
2018-03-20T02:22:54.370Z,32.85
2018-03-20T02:23:55.783Z,35.75
2018-03-20T02:24:57.189Z,35.60
2018-03-20T02:25:58.963Z,34.25
2018-03-20T02:27:00.365Z,34.92
2018-03-20T02:28:01.759Z,34.35
2018-03-20T02:29:03.154Z,38.53
2018-03-20T02:30:04.609Z,35.28
2018-03-20T02:31:06.058Z,32.47
2018-03-20T02:32:07.449Z,35.28
2018-03-20T02:33:08.849Z,34.20
2018-03-20T02:34:10.274Z,38.08
2018-03-20T02:35:12.271Z,35.95
2018-03-20T02:36:15.388Z,37.75
2018-03-20T02:37:16.791Z,35.92
2018-03-20T02:38:18.202Z,37.08
2018-03-20T02:39:19.617Z,36.55
2018-03-20T02:40:22.739Z,39.78
2018-03-20T02:41:24.422Z,35.60
2018-03-20T02:43:47.859Z,35.03
2018-03-20T02:44:49.259Z,37.67
2018-03-20T02:45:50.650Z,41.03
2018-03-20T02:46:52.095Z,38.45
2018-03-20T02:47:54.250Z,37.15
2018-03-20T02:48:56.393Z,41.10
2018-03-20T02:49:59.527Z,39.28
2018-03-20T02:51:00.993Z,35.85
2018-03-20T02:52:02.632Z,38.50
2018-03-20T02:54:29.027Z,36.42
2018-03-20T02:55:32.129Z,37.85
2018-03-20T02:57:07.251Z,32.90
2018-03-20T02:58:08.653Z,40.47
2018-03-20T02:59:39.077Z,37.13
2018-03-20T03:00:42.913Z,40.42
2018-03-20T03:01:46.031Z,40.72
2018-03-20T03:02:47.754Z,42.95
2018-03-20T03:03:50.885Z,39.25
2018-03-20T03:04:52.281Z,38.45
2018-03-20T03:05:53.695Z,37.00
2018-03-20T03:06:56.810Z,39.13
2018-03-20T03:07:58.341Z,36.88
2018-03-20T03:08:59.767Z,38.78
2018-03-20T03:10:01.951Z,39.25
2018-03-20T03:11:04.165Z,40.28
2018-03-20T03:12:05.609Z,41.37
2018-03-20T03:13:07.332Z,40.65
2018-03-20T03:14:10.439Z,42.03
2018-03-20T03:15:13.543Z,42.75
2018-03-20T03:16:15.683Z,40.63
2018-03-20T03:17:17.817Z,40.78
2018-03-20T03:18:20.953Z,42.70
2018-03-20T03:19:22.399Z,39.40
2018-03-20T03:20:23.805Z,42.40
2018-03-20T03:21:25.265Z,40.33
2018-03-20T03:22:27.400Z,42.05
2018-03-20T03:23:30.519Z,41.03
2018-03-20T03:24:33.400Z,40.72
2018-03-20T03:25:36.509Z,41.35
2018-03-20T03:26:37.907Z,41.75
2018-03-20T03:27:39.322Z,39.90
2018-03-20T03:28:42.719Z,38.17
2018-03-20T03:29:45.827Z,40.60
2018-03-20T03:30:48.922Z,40.28
2018-03-20T03:33:03.636Z,38.72
2018-03-20T03:34:05.065Z,38.70
2018-03-20T03:35:06.825Z,38.65
2018-03-20T03:36:08.240Z,43.42
2018-03-20T03:37:12.217Z,43.83
2018-03-20T03:38:14.383Z,41.03
2018-03-20T03:39:17.782Z,44.05
2018-03-20T03:40:20.911Z,41.08
2018-03-20T03:41:22.355Z,39.05
2018-03-20T03:42:23.770Z,42.30
2018-03-20T03:43:26.348Z,40.70
2018-03-20T03:44:28.067Z,44.30
2018-03-20T03:45:29.555Z,41.60
2018-03-20T03:46:30.977Z,41.92
2018-03-20T03:47:32.400Z,37.88
2018-03-20T03:48:35.509Z,36.00
2018-03-20T03:49:37.675Z,38.85
2018-03-20T03:50:39.129Z,41.70
2018-03-20T03:51:40.533Z,43.70
2018-03-20T03:52:42.197Z,39.60
2018-03-20T03:53:45.304Z,38.53
2018-03-20T03:54:46.803Z,39.65
2018-03-20T03:55:49.929Z,41.17
2018-03-20T03:56:53.033Z,37.45
2018-03-20T03:57:55.911Z,39.95
2018-03-20T03:58:57.309Z,35.97
2018-03-20T03:59:59.097Z,38.40
2018-03-20T04:01:00.503Z,41.80
2018-03-20T04:02:01.918Z,41.97
2018-03-20T04:03:05.025Z,39.58
2018-03-20T04:04:07.160Z,38.78
2018-03-20T04:05:08.941Z,45.92
2018-03-20T04:06:10.353Z,44.10
2018-03-20T04:07:12.753Z,39.67
2018-03-20T04:08:14.169Z,46.37
2018-03-20T04:09:15.575Z,49.05
2018-03-20T04:10:18.364Z,45.15
2018-03-20T04:11:21.511Z,43.38
2018-03-20T04:12:22.915Z,47.65
2018-03-20T04:13:24.328Z,47.47
2018-03-20T04:14:26.840Z,42.70
2018-03-20T04:15:28.625Z,48.28
2018-03-20T04:16:31.736Z,44.63
2018-03-20T04:17:34.858Z,44.25
2018-03-20T04:18:36.267Z,43.78
2018-03-20T04:19:38.817Z,46.37
2018-03-20T04:20:40.504Z,46.83
2018-03-20T04:21:42.797Z,43.40
2018-03-20T04:22:44.227Z,47.45
2018-03-20T04:23:45.629Z,48.08
2018-03-20T04:26:17.639Z,49.85
2018-03-20T04:27:20.749Z,49.45
2018-03-20T04:28:22.163Z,46.88
2018-03-20T04:29:25.299Z,46.72
2018-03-20T04:30:26.701Z,45.53
2018-03-20T04:32:04.360Z,48.05
2018-03-20T04:33:06.493Z,48.53
2018-03-20T04:34:07.909Z,47.65
2018-03-20T04:35:09.309Z,44.78
2018-03-20T04:36:10.735Z,47.65
2018-03-20T04:37:12.229Z,49.00
2018-03-20T04:38:13.626Z,49.53
2018-03-20T04:39:15.005Z,48.08
2018-03-20T04:40:16.417Z,48.78
2018-03-20T04:41:17.813Z,47.40
2018-03-20T04:42:20.949Z,48.67
2018-03-20T04:43:22.357Z,43.63
2018-03-20T04:44:23.779Z,49.08
2018-03-20T04:45:25.190Z,47.58
2018-03-20T04:47:26.760Z,45.72
2018-03-20T04:48:29.282Z,46.37
2018-03-20T04:49:30.705Z,50.45
2018-03-20T04:50:33.832Z,44.67
2018-03-20T04:51:35.240Z,42.30
2018-03-20T04:52:38.381Z,46.95
2018-03-20T04:53:42.305Z,45.08
2018-03-20T04:55:11.562Z,43.42
2018-03-20T04:56:13.705Z,44.95
2018-03-20T04:57:16.800Z,46.42
2018-03-20T04:58:54.031Z,51.08
2018-03-20T04:59:55.433Z,46.90
2018-03-20T05:00:56.809Z,47.03
2018-03-20T05:01:59.307Z,48.58
2018-03-20T05:03:00.720Z,46.08
2018-03-20T05:04:03.621Z,49.42
2018-03-20T05:05:05.073Z,48.15
2018-03-20T05:06:07.205Z,46.42
2018-03-20T05:07:10.319Z,46.70
2018-03-20T05:08:13.457Z,47.70
2018-03-20T05:09:16.418Z,44.92
2018-03-20T05:10:17.816Z,47.62
2018-03-20T05:11:19.217Z,45.92
2018-03-20T05:12:20.615Z,49.08
2018-03-20T05:13:59.651Z,51.60
2018-03-20T05:15:03.103Z,47.65
2018-03-20T05:16:06.003Z,53.03
2018-03-20T05:17:07.432Z,52.60
2018-03-20T05:18:10.584Z,46.67
2018-03-20T05:21:06.575Z,48.17
2018-03-20T05:22:15.721Z,49.38
2018-03-20T05:23:59.135Z,47.78
2018-03-20T05:25:00.553Z,47.60
2018-03-20T05:27:22.336Z,51.80
2018-03-20T05:28:25.465Z,54.75
2018-03-20T05:30:05.829Z,49.22
2018-03-20T05:31:08.001Z,48.92
2018-03-20T05:32:43.675Z,49.97
2018-03-20T05:33:45.837Z,49.63
2018-03-20T05:34:48.968Z,50.70
2018-03-20T05:35:50.837Z,46.63
2018-03-20T05:36:52.257Z,44.28
2018-03-20T05:37:54.088Z,45.10
2018-03-20T05:38:56.641Z,44.38
2018-03-20T05:39:58.061Z,44.67
2018-03-20T05:41:23.713Z,50.92
2018-03-20T05:42:25.141Z,48.72
2018-03-20T05:43:26.625Z,47.95
2018-03-20T05:44:28.055Z,45.33
2018-03-20T05:46:39.151Z,53.58
2018-03-20T05:47:46.704Z,50.60
2018-03-20T05:51:30.555Z,44.50
2018-03-20T05:52:32.143Z,44.33
2018-03-20T05:53:33.719Z,48.65
2018-03-20T05:56:45.895Z,45.25
2018-03-20T05:57:47.538Z,48.75
2018-03-20T05:58:49.144Z,47.20
2018-03-20T05:59:50.685Z,48.08
2018-03-20T06:00:52.203Z,50.33
2018-03-20T06:01:53.975Z,45.58
2018-03-20T06:02:56.367Z,45.33
2018-03-20T06:03:58.027Z,43.35
2018-03-20T06:04:59.734Z,43.90
2018-03-20T06:06:01.215Z,49.33
2018-03-20T06:07:02.819Z,41.45
2018-03-20T06:08:04.253Z,41.78
2018-03-20T06:09:05.696Z,43.35
2018-03-20T06:10:07.881Z,42.40
2018-03-20T06:11:09.404Z,39.72
2018-03-20T06:12:11.937Z,42.78
2018-03-20T06:13:14.475Z,41.60
2018-03-20T06:14:15.901Z,41.42
2018-03-20T06:15:18.782Z,41.83
2018-03-20T06:16:20.582Z,42.10
2018-03-20T06:17:22.742Z,41.60
2018-03-20T06:18:24.139Z,41.00
2018-03-20T06:19:25.563Z,39.35
2018-03-20T06:20:27.749Z,42.22
2018-03-20T06:21:30.623Z,38.70
2018-03-20T06:22:32.057Z,40.92
2018-03-20T06:23:33.451Z,38.67
2018-03-20T06:24:35.592Z,34.63
2018-03-20T06:25:36.981Z,37.92
2018-03-20T06:26:38.381Z,39.95
2018-03-20T06:27:41.817Z,42.45
2018-03-20T06:28:43.213Z,39.63
2018-03-20T06:30:25.569Z,38.42
2018-03-20T06:31:27.001Z,36.22
2018-03-20T06:32:30.109Z,36.00
2018-03-20T06:33:32.269Z,39.22
2018-03-20T06:34:33.733Z,31.60
2018-03-20T06:35:35.129Z,38.88
2018-03-20T06:36:36.521Z,37.08
2018-03-20T06:37:39.605Z,39.05
2018-03-20T06:38:42.716Z,34.17
2018-03-20T06:40:38.840Z,30.45
2018-03-20T06:41:40.620Z,37.75
2018-03-20T06:42:43.137Z,38.70
2018-03-20T06:43:44.571Z,47.30
2018-03-20T06:44:46.694Z,39.53
2018-03-20T06:45:48.094Z,35.10
2018-03-20T06:46:50.624Z,35.45
2018-03-20T06:47:52.029Z,35.33
2018-03-20T06:48:53.437Z,34.20
2018-03-20T06:49:56.595Z,33.60
2018-03-20T06:50:58.836Z,33.33
2018-03-20T06:52:00.209Z,37.05
2018-03-20T06:53:02.395Z,36.20
2018-03-20T06:54:03.835Z,36.20
2018-03-20T06:55:05.265Z,37.28
2018-03-20T06:56:06.678Z,32.22
2018-03-20T06:57:09.777Z,34.33
2018-03-20T06:58:12.880Z,30.95
2018-03-20T06:59:15.782Z,33.17
2018-03-20T07:00:17.984Z,30.15
2018-03-20T07:01:19.421Z,28.92
2018-03-20T07:02:20.819Z,31.30
2018-03-20T07:03:22.228Z,37.25
2018-03-20T07:04:23.655Z,31.45
2018-03-20T07:05:26.521Z,32.03
2018-03-20T07:06:27.945Z,33.28
2018-03-20T07:07:29.339Z,35.30
2018-03-20T07:08:30.737Z,34.28
2018-03-20T07:09:32.919Z,30.67
2018-03-20T07:10:34.337Z,31.40
2018-03-20T07:11:36.511Z,33.10
2018-03-20T07:12:38.641Z,30.70
2018-03-20T07:13:40.049Z,31.50
2018-03-20T07:14:42.249Z,32.92
2018-03-20T07:15:43.621Z,30.55
2018-03-20T07:16:45.019Z,30.67
2018-03-20T07:17:46.417Z,34.78
2018-03-20T07:18:47.869Z,30.48
2018-03-20T07:19:49.306Z,30.58
2018-03-20T07:20:50.721Z,31.25
2018-03-20T07:21:52.873Z,31.42
2018-03-20T07:22:55.450Z,31.60
2018-03-20T07:23:56.861Z,32.45
2018-03-20T07:24:58.277Z,36.67
2018-03-20T07:26:01.416Z,33.40
2018-03-20T07:27:03.235Z,31.15
2018-03-20T07:28:06.375Z,29.65
2018-03-20T07:29:07.775Z,32.42
2018-03-20T07:30:35.424Z,32.05
2018-03-20T07:31:37.608Z,32.47
2018-03-20T07:32:40.521Z,31.75
2018-03-20T07:33:42.941Z,30.60
2018-03-20T07:34:44.365Z,33.10
2018-03-20T07:35:45.785Z,35.08
2018-03-20T07:36:47.189Z,32.75
2018-03-20T07:38:36.293Z,35.47
2018-03-20T07:39:37.695Z,30.65
2018-03-20T07:40:39.104Z,30.17
2018-03-20T07:41:40.525Z,33.63
2018-03-20T07:42:42.256Z,32.97
2018-03-20T07:43:43.669Z,31.15
2018-03-20T07:44:45.536Z,32.45
2018-03-20T07:45:46.871Z,36.30
2018-03-20T07:46:48.302Z,34.10
2018-03-20T07:47:51.192Z,32.75
2018-03-20T07:48:52.596Z,31.65
2018-03-20T07:49:53.993Z,32.65
2018-03-20T07:50:55.390Z,36.00
2018-03-20T07:51:57.129Z,37.38
2018-03-20T07:52:58.542Z,37.28
2018-03-20T07:53:59.934Z,34.47
2018-03-20T07:55:02.110Z,36.85
2018-03-20T07:56:04.296Z,38.92
2018-03-20T07:57:06.462Z,36.60
2018-03-20T07:58:08.619Z,36.67
2018-03-20T08:00:08.111Z,34.70
2018-03-20T08:01:09.509Z,41.05
2018-03-20T08:02:12.365Z,37.22
2018-03-20T08:03:53.782Z,45.00
2018-03-20T08:05:45.873Z,39.55
2018-03-20T08:07:13.840Z,43.80
2018-03-20T08:08:15.988Z,37.45
2018-03-20T08:09:17.395Z,38.20
2018-03-20T08:10:18.790Z,38.28
2018-03-20T08:13:20.881Z,38.65
2018-03-20T08:14:22.310Z,39.58
2018-03-20T08:15:23.717Z,40.08
2018-03-20T08:17:08.810Z,40.45
2018-03-20T08:18:10.267Z,39.63
2018-03-20T08:19:11.950Z,40.10
2018-03-20T08:20:14.093Z,35.90
2018-03-20T08:21:15.506Z,38.67
2018-03-20T08:23:33.220Z,36.72
2018-03-20T08:25:23.786Z,34.75
2018-03-20T08:26:25.173Z,35.95
2018-03-20T08:27:51.397Z,35.17
2018-03-20T08:28:53.929Z,34.78
2018-03-20T08:29:56.473Z,35.25
2018-03-20T08:30:58.630Z,36.13
2018-03-20T08:32:00.020Z,33.63
2018-03-20T08:33:01.411Z,32.60
2018-03-20T08:34:02.801Z,33.25
2018-03-20T08:35:38.961Z,36.90
2018-03-20T08:36:42.096Z,35.65
2018-03-20T08:37:44.250Z,39.57
2018-03-20T08:38:45.681Z,34.88
2018-03-20T08:39:47.086Z,39.20
2018-03-20T08:40:49.229Z,39.67
2018-03-20T08:41:50.652Z,37.70
2018-03-20T08:44:15.481Z,33.53
2018-03-20T08:45:16.900Z,36.78
2018-03-20T08:46:18.297Z,37.28
2018-03-20T08:47:20.448Z,37.00
2018-03-20T08:48:48.749Z,37.28
2018-03-20T08:50:47.958Z,36.08
2018-03-20T08:51:50.474Z,37.67
2018-03-20T08:52:51.886Z,37.08
2018-03-20T08:53:53.293Z,34.40
2018-03-20T08:55:36.112Z,38.15
2018-03-20T08:56:38.306Z,35.17
2018-03-20T08:57:40.453Z,36.83
2018-03-20T08:58:42.896Z,36.35
2018-03-20T08:59:46.010Z,38.95
2018-03-20T09:00:48.155Z,42.10
2018-03-20T09:01:49.573Z,36.85
2018-03-20T09:02:50.997Z,38.17
2018-03-20T09:03:53.190Z,38.97
2018-03-20T09:04:55.718Z,36.20
2018-03-20T09:05:57.128Z,35.58
2018-03-20T09:06:58.566Z,42.20
2018-03-20T09:08:00.711Z,36.85
2018-03-20T09:09:02.950Z,36.88
2018-03-20T09:10:04.386Z,38.05
2018-03-20T09:11:05.796Z,35.53
2018-03-20T09:12:07.210Z,39.60
2018-03-20T09:13:08.605Z,40.05
2018-03-20T09:14:53.869Z,42.33
2018-03-20T09:15:55.273Z,37.20
2018-03-20T09:16:56.654Z,40.85
2018-03-20T09:17:58.090Z,40.08
2018-03-20T09:18:59.478Z,39.70
2018-03-20T09:20:01.632Z,38.90
2018-03-20T09:21:03.037Z,39.65
2018-03-20T09:22:04.447Z,39.75
2018-03-20T09:23:06.592Z,33.17
2018-03-20T09:24:08.042Z,38.20
2018-03-20T09:25:09.481Z,39.92
2018-03-20T09:26:56.414Z,36.15
2018-03-20T09:27:58.586Z,34.70
2018-03-20T09:29:00.002Z,38.30
2018-03-20T09:30:01.424Z,39.35
2018-03-20T09:31:02.867Z,37.42
2018-03-20T09:32:05.981Z,39.25
2018-03-20T09:33:07.377Z,39.35
2018-03-20T09:34:12.055Z,38.17
2018-03-20T09:35:14.222Z,40.75
2018-03-20T09:36:16.742Z,34.10
2018-03-20T09:37:18.126Z,34.72
2018-03-20T09:38:19.542Z,32.97
2018-03-20T09:39:20.946Z,35.42
2018-03-20T09:40:22.355Z,36.30
2018-03-20T09:41:23.770Z,37.55
2018-03-20T09:42:25.912Z,35.35
2018-03-20T09:43:27.363Z,35.33
2018-03-20T09:44:28.715Z,33.72
2018-03-20T09:45:30.134Z,38.13
2018-03-20T09:46:31.543Z,35.65
2018-03-20T09:47:33.716Z,39.60
2018-03-20T09:48:35.122Z,36.75
2018-03-20T09:49:36.517Z,38.47
2018-03-20T09:50:37.906Z,38.47
2018-03-20T09:51:40.422Z,39.25
2018-03-20T09:52:42.073Z,35.88
2018-03-20T09:53:43.474Z,35.47
2018-03-20T09:54:45.996Z,35.00
2018-03-20T09:55:48.128Z,35.60
2018-03-20T09:56:50.290Z,39.67
2018-03-20T09:57:51.690Z,37.78
2018-03-20T09:58:53.821Z,37.47
2018-03-20T09:59:55.225Z,39.93
2018-03-20T10:00:57.358Z,40.97
2018-03-20T10:02:50.618Z,42.03
2018-03-20T10:03:52.018Z,39.67
2018-03-20T10:04:53.414Z,41.90
2018-03-20T10:05:54.809Z,38.75
2018-03-20T10:06:56.210Z,38.20
2018-03-20T10:07:57.646Z,35.05
2018-03-20T10:08:59.057Z,41.40
2018-03-20T10:10:00.503Z,39.92
2018-03-20T10:11:01.910Z,41.60
2018-03-20T10:12:03.326Z,46.08
2018-03-20T10:13:04.748Z,47.05
2018-03-20T10:14:06.888Z,45.50
2018-03-20T10:15:08.307Z,39.63
2018-03-20T10:16:09.710Z,39.63
2018-03-20T10:17:11.877Z,41.30
2018-03-20T10:18:13.286Z,45.63
2018-03-20T10:19:14.658Z,42.08
2018-03-20T10:20:16.089Z,42.75
2018-03-20T10:21:18.217Z,41.25
2018-03-20T10:22:20.735Z,46.50
2018-03-20T10:23:22.878Z,45.83
2018-03-20T10:24:24.313Z,45.50
2018-03-20T10:25:25.721Z,51.08
2018-03-20T10:26:27.119Z,46.45
2018-03-20T10:27:28.528Z,46.72
2018-03-20T10:28:29.950Z,51.03
2018-03-20T10:31:51.113Z,46.33
2018-03-20T10:32:52.498Z,47.10
2018-03-20T10:33:53.902Z,48.05
2018-03-20T10:34:55.306Z,46.63
2018-03-20T10:35:57.445Z,44.53
2018-03-20T10:36:58.908Z,48.87
2018-03-20T10:38:00.560Z,49.63
2018-03-20T10:39:02.424Z,52.88
2018-03-20T10:40:06.050Z,47.15
2018-03-20T10:41:09.517Z,48.50
2018-03-20T10:43:51.664Z,45.35
2018-03-20T10:44:53.054Z,52.13
2018-03-20T10:45:55.938Z,45.55
2018-03-20T10:46:57.358Z,43.78
2018-03-20T10:48:20.683Z,49.55
2018-03-20T10:49:22.130Z,48.22
2018-03-20T10:50:23.558Z,46.80
2018-03-20T10:51:25.779Z,43.97
2018-03-20T10:52:27.174Z,48.67
2018-03-20T10:53:28.578Z,48.80
2018-03-20T10:54:30.696Z,48.10
2018-03-20T10:55:32.354Z,48.28
2018-03-20T10:56:33.792Z,44.25
2018-03-20T10:57:35.962Z,51.40
2018-03-20T10:58:38.130Z,53.40
2018-03-20T10:59:41.976Z,52.45
2018-03-20T11:00:49.193Z,49.10
2018-03-20T11:01:50.630Z,89.85
2018-03-20T11:02:52.018Z,136.63
2018-03-20T11:05:03.489Z,70.22
2018-03-20T11:06:04.921Z,54.22
2018-03-20T11:07:08.042Z,56.08
2018-03-20T11:08:57.090Z,68.60
2018-03-20T11:10:51.396Z,58.10
2018-03-20T11:11:52.801Z,70.20
2018-03-20T11:12:54.234Z,65.22
2018-03-20T11:13:57.117Z,57.55
2018-03-20T11:15:00.224Z,54.47
2018-03-20T11:16:01.628Z,52.30
2018-03-20T11:17:03.065Z,47.72
2018-03-20T11:18:05.217Z,47.28
2018-03-20T11:19:06.631Z,44.03
2018-03-20T11:20:09.756Z,47.90
2018-03-20T11:21:11.881Z,43.08
2018-03-20T11:22:13.296Z,49.17
2018-03-20T11:23:14.686Z,46.88
2018-03-20T11:24:16.102Z,46.00
2018-03-20T11:25:17.535Z,41.15
2018-03-20T11:26:20.406Z,40.75
2018-03-20T11:27:55.338Z,43.30
2018-03-20T11:28:56.781Z,44.70
2018-03-20T11:29:58.266Z,43.83
2018-03-20T11:31:01.374Z,45.00
2018-03-20T11:32:02.778Z,44.35
2018-03-20T11:33:04.218Z,40.38
2018-03-20T11:35:03.644Z,41.40
2018-03-20T11:36:05.053Z,45.50
2018-03-20T11:37:06.457Z,42.25
2018-03-20T11:38:26.418Z,46.17
2018-03-20T11:39:28.596Z,46.33
2018-03-20T11:40:30.018Z,41.72
2018-03-20T11:41:32.165Z,42.47
2018-03-20T11:42:33.602Z,43.35
2018-03-20T11:43:35.064Z,45.12
2018-03-20T11:44:37.217Z,40.40
2018-03-20T11:45:40.326Z,44.30
2018-03-20T11:46:42.722Z,41.72
2018-03-20T11:47:44.124Z,42.20
2018-03-20T11:48:45.578Z,43.03
2018-03-20T11:49:48.462Z,45.88
2018-03-20T11:51:14.329Z,42.55
2018-03-20T11:52:16.458Z,44.67
2018-03-20T11:54:10.426Z,39.65
2018-03-20T11:55:12.131Z,38.03
2018-03-20T11:56:13.530Z,37.97
2018-03-20T11:57:15.689Z,44.13
2018-03-20T11:58:17.093Z,39.53
2018-03-20T11:59:18.516Z,41.10
2018-03-20T12:00:21.401Z,45.35
2018-03-20T12:01:22.797Z,45.80
2018-03-20T12:02:24.211Z,42.45
2018-03-20T12:04:16.432Z,40.30
2018-03-20T12:05:17.842Z,37.55
2018-03-20T12:06:19.321Z,39.83
2018-03-20T12:07:20.742Z,42.00
2018-03-20T12:08:41.410Z,43.08
2018-03-20T12:09:47.950Z,43.72
2018-03-20T12:10:51.150Z,45.08
2018-03-20T12:11:52.566Z,44.58
2018-03-20T12:12:53.975Z,36.78
2018-03-20T12:13:55.374Z,41.53
2018-03-20T12:14:56.777Z,42.88
2018-03-20T12:15:58.461Z,38.92
2018-03-20T12:17:00.599Z,42.33
2018-03-20T12:18:02.048Z,39.00
2018-03-20T12:19:03.486Z,42.70
2018-03-20T12:20:04.920Z,47.03
2018-03-20T12:21:07.085Z,45.17
2018-03-20T12:22:08.547Z,42.55
2018-03-20T12:23:09.958Z,40.65
2018-03-20T12:24:11.382Z,40.50
2018-03-20T12:25:12.812Z,40.33
2018-03-20T12:26:47.596Z,46.50
2018-03-20T12:27:49.006Z,42.15
2018-03-20T12:28:51.160Z,40.60
2018-03-20T12:29:52.561Z,38.50
2018-03-20T12:30:53.958Z,44.90
2018-03-20T12:31:55.396Z,43.95
2018-03-20T12:34:57.068Z,41.35
2018-03-20T12:36:00.177Z,41.50
2018-03-20T12:37:01.598Z,38.05
2018-03-20T12:38:04.726Z,45.35
2018-03-20T12:39:06.261Z,42.80
2018-03-20T12:40:08.030Z,38.70
2018-03-20T12:41:10.163Z,45.28
2018-03-20T12:42:12.406Z,38.92
2018-03-20T12:43:13.818Z,43.20
2018-03-20T12:44:15.254Z,45.25
2018-03-20T12:45:16.668Z,45.12
2018-03-20T12:46:18.074Z,37.50
2018-03-20T12:47:19.502Z,38.97
2018-03-20T12:48:21.265Z,42.28
2018-03-20T12:49:23.411Z,42.13
2018-03-20T12:50:24.819Z,39.83
2018-03-20T12:51:26.212Z,42.03
2018-03-20T12:52:27.626Z,46.45
2018-03-20T12:53:29.060Z,41.35
2018-03-20T12:54:31.259Z,41.83
2018-03-20T12:55:33.358Z,43.35
2018-03-20T12:56:34.770Z,46.58
2018-03-20T12:57:36.186Z,44.00
2018-03-20T12:58:38.323Z,42.35
2018-03-20T13:03:43.794Z,41.80
2018-03-20T13:04:45.989Z,43.33
2018-03-20T13:05:47.396Z,43.33
2018-03-20T13:07:32.778Z,42.50
2018-03-20T13:08:34.197Z,40.08
2018-03-20T13:09:35.917Z,44.45
2018-03-20T13:10:37.331Z,41.17
2018-03-20T13:11:38.736Z,39.67
2018-03-20T13:12:42.078Z,41.50
2018-03-20T13:13:43.501Z,34.60
2018-03-20T13:14:45.658Z,37.15
2018-03-20T13:15:47.080Z,38.03
2018-03-20T13:16:48.490Z,37.15
2018-03-20T13:17:50.270Z,36.83
2018-03-20T13:18:52.397Z,38.85
2018-03-20T13:20:23.501Z,37.78
2018-03-20T13:21:25.646Z,38.08
2018-03-20T13:22:27.066Z,43.08
2018-03-20T13:23:28.557Z,42.15
2018-03-20T13:24:29.862Z,37.40
2018-03-20T13:25:31.590Z,37.97
2018-03-20T13:26:33.002Z,36.65
2018-03-20T13:27:36.125Z,42.08
2018-03-20T13:28:37.536Z,34.83
2018-03-20T13:29:38.958Z,36.60
2018-03-20T13:30:41.798Z,37.05
2018-03-20T13:31:43.985Z,37.13
2018-03-20T13:32:46.149Z,37.67
2018-03-20T13:33:49.289Z,40.45
2018-03-20T13:34:50.678Z,36.70
2018-03-20T13:35:52.152Z,40.40
2018-03-20T13:36:55.310Z,34.08
2018-03-20T13:37:57.458Z,36.58
2018-03-20T13:39:00.346Z,36.65
2018-03-20T13:40:01.766Z,35.05
2018-03-20T13:41:03.202Z,37.25
2018-03-20T13:42:06.086Z,33.53
2018-03-20T13:43:07.482Z,32.35
2018-03-20T13:44:54.897Z,32.60
2018-03-20T13:45:56.322Z,36.35
2018-03-20T13:46:58.050Z,33.25
2018-03-20T13:47:59.462Z,31.45
2018-03-20T13:49:00.873Z,35.25
2018-03-20T13:50:02.690Z,35.67
2018-03-20T13:52:26.023Z,31.52
2018-03-20T13:53:28.161Z,31.17
2018-03-20T13:55:26.076Z,30.65
2018-03-20T13:56:29.185Z,30.53
2018-03-20T13:57:30.858Z,29.10
2018-03-20T13:58:33.016Z,35.17
2018-03-20T14:00:18.077Z,31.00
2018-03-20T14:01:20.219Z,34.42
2018-03-20T14:02:21.634Z,34.63
2018-03-20T14:04:13.510Z,35.70
2018-03-20T14:05:14.966Z,32.90
2018-03-20T14:06:17.889Z,29.17
2018-03-20T14:07:20.854Z,29.08
2018-03-20T14:08:58.194Z,34.83
2018-03-20T14:10:00.342Z,28.48
2018-03-20T14:11:01.733Z,30.15
2018-03-20T14:12:04.853Z,32.42
2018-03-20T14:13:06.290Z,30.42
2018-03-20T14:14:07.728Z,34.05
2018-03-20T14:15:10.849Z,28.98
2018-03-20T14:16:12.734Z,31.12
2018-03-20T14:17:14.151Z,27.65
2018-03-20T14:18:16.666Z,28.33
2018-03-20T14:19:19.195Z,28.23
2018-03-20T14:20:22.322Z,31.08
2018-03-20T14:21:23.734Z,29.52
2018-03-20T14:22:25.862Z,32.65
2018-03-20T14:23:27.258Z,32.05
2018-03-20T14:24:30.374Z,28.17
2018-03-20T14:25:31.792Z,28.20
2018-03-20T14:26:34.913Z,28.70
2018-03-20T14:27:37.179Z,34.25
2018-03-20T14:28:40.298Z,28.45
2018-03-20T14:30:09.822Z,26.52
2018-03-20T14:31:11.906Z,30.15
2018-03-20T14:32:13.315Z,30.98
2018-03-20T14:33:16.202Z,28.65
2018-03-20T14:34:17.609Z,26.73
2018-03-20T14:35:19.014Z,24.75
2018-03-20T14:36:21.920Z,25.23
2018-03-20T14:37:25.018Z,26.73
2018-03-20T14:38:27.518Z,26.08
2018-03-20T14:39:28.929Z,28.48
2018-03-20T14:40:30.698Z,24.00
2018-03-20T14:41:33.601Z,29.70
2018-03-20T14:42:35.010Z,23.17
2018-03-20T14:44:13.455Z,26.92
2018-03-20T14:45:14.878Z,26.70
2018-03-20T14:46:16.286Z,25.70
2018-03-20T14:47:17.966Z,24.80
2018-03-20T14:48:19.401Z,25.35
2018-03-20T14:49:20.818Z,25.40
2018-03-20T14:50:22.262Z,24.13
2018-03-20T14:51:25.461Z,30.37